createdAt,value
2018-11-23T00:01:40.449Z,1.60
2018-11-23T00:04:07.184Z,1.80
2018-11-23T00:06:33.152Z,1.80
2018-11-23T00:08:59.129Z,1.80
2018-11-23T00:11:25.105Z,1.80
2018-11-23T00:13:51.061Z,1.80
2018-11-23T00:16:17.081Z,1.80
2018-11-23T00:18:43.082Z,1.50
2018-11-23T00:21:09.096Z,1.50
2018-11-23T00:23:35.078Z,1.60
2018-11-23T00:26:01.135Z,1.70
2018-11-23T00:28:27.117Z,1.50
2018-11-23T00:30:53.833Z,1.00
2018-11-23T00:33:20.601Z,1.10
2018-11-23T00:35:46.649Z,1.00
2018-11-23T00:38:12.609Z,1.10
2018-11-23T00:40:38.593Z,1.10
2018-11-23T00:43:04.620Z,0.90
2018-11-23T00:45:30.597Z,0.50
2018-11-23T00:47:56.620Z,0.30
2018-11-23T00:50:23.324Z,0.30
2018-11-23T00:52:49.335Z,0.30
2018-11-23T00:55:15.324Z,0.60
2018-11-23T00:57:41.286Z,0.70
2018-11-23T01:00:07.301Z,0.90
2018-11-23T01:02:33.283Z,0.90
2018-11-23T01:04:59.783Z,0.70
2018-11-23T01:07:25.774Z,0.70
2018-11-23T01:09:51.800Z,0.70
2018-11-23T01:12:17.827Z,0.80
2018-11-23T01:14:43.878Z,0.90
2018-11-23T01:17:09.866Z,0.80
2018-11-23T01:19:35.912Z,0.90
2018-11-23T01:22:01.930Z,1.10
2018-11-23T01:24:27.924Z,1.20
2018-11-23T01:26:53.937Z,1.00
2018-11-23T01:29:19.896Z,0.80
2018-11-23T01:31:45.880Z,0.90
2018-11-23T01:34:11.853Z,1.00
2018-11-23T01:36:37.832Z,1.10
2018-11-23T01:39:03.815Z,1.20
2018-11-23T01:41:30.532Z,1.20
2018-11-23T01:43:56.529Z,1.20
2018-11-23T01:46:22.523Z,1.30
2018-11-23T01:48:48.519Z,1.40
2018-11-23T01:51:15.240Z,1.50
2018-11-23T01:53:41.234Z,1.50
2018-11-23T01:56:07.220Z,1.60
2018-11-23T01:58:33.204Z,1.60
2018-11-23T02:00:59.269Z,1.60
2018-11-23T02:03:25.265Z,1.60
2018-11-23T02:05:51.972Z,1.50
2018-11-23T02:08:17.984Z,1.40
2018-11-23T02:10:43.948Z,1.40
2018-11-23T02:13:10.664Z,1.30
2018-11-23T02:15:36.650Z,1.30
2018-11-23T02:18:02.607Z,1.00
2018-11-23T02:20:28.565Z,1.00
2018-11-23T02:22:55.278Z,1.10
2018-11-23T02:25:21.243Z,1.10
2018-11-23T02:27:47.199Z,1.10
2018-11-23T02:30:13.173Z,1.20
2018-11-23T02:32:39.170Z,1.10
2018-11-23T02:35:05.152Z,1.00
2018-11-23T02:37:31.160Z,1.00
2018-11-23T02:39:57.114Z,0.80
2018-11-23T02:42:23.106Z,0.80
2018-11-23T02:44:49.084Z,0.60
2018-11-23T02:47:15.068Z,0.90
2018-11-23T02:49:41.028Z,0.80
2018-11-23T02:52:07.061Z,0.70
2018-11-23T02:54:33.028Z,0.90
2018-11-23T02:56:58.996Z,1.00
2018-11-23T02:59:24.990Z,1.20
2018-11-23T03:01:50.949Z,1.30
2018-11-23T03:04:16.920Z,1.40
2018-11-23T03:06:42.933Z,1.50
2018-11-23T03:09:08.957Z,1.50
2018-11-23T03:11:34.908Z,1.50
2018-11-23T03:14:00.878Z,1.50
2018-11-23T03:16:26.877Z,1.60
2018-11-23T03:18:52.954Z,1.70
2018-11-23T03:21:18.901Z,1.60
2018-11-23T03:23:44.891Z,1.50
2018-11-23T03:26:10.888Z,1.20
2018-11-23T03:28:36.882Z,0.60
2018-11-23T03:31:02.866Z,0.60
2018-11-23T03:33:28.876Z,0.80
2018-11-23T03:35:54.859Z,0.80
2018-11-23T03:38:20.834Z,1.00
2018-11-23T03:40:46.790Z,1.10
2018-11-23T03:43:12.771Z,1.20
2018-11-23T03:45:38.741Z,1.30
2018-11-23T03:48:05.465Z,0.80
2018-11-23T03:50:31.454Z,0.70
2018-11-23T03:52:57.427Z,0.60
2018-11-23T03:55:23.469Z,0.50
2018-11-23T03:57:49.455Z,0.60
2018-11-23T04:00:17.430Z,0.80
2018-11-23T04:02:41.460Z,0.90
2018-11-23T04:05:07.433Z,1.10
2018-11-23T04:07:33.433Z,1.10
2018-11-23T04:09:59.401Z,1.10
2018-11-23T04:12:25.381Z,1.20
2018-11-23T04:14:52.120Z,1.30
2018-11-23T04:17:18.098Z,1.30
2018-11-23T04:19:44.120Z,1.20
2018-11-23T04:22:10.104Z,0.80
2018-11-23T04:24:36.057Z,0.80
2018-11-23T04:27:02.042Z,0.80
2018-11-23T04:29:28.073Z,0.90
2018-11-23T04:31:54.069Z,0.80
2018-11-23T04:34:20.793Z,1.00
2018-11-23T04:36:46.816Z,1.00
2018-11-23T04:39:12.800Z,1.10
2018-11-23T04:41:38.786Z,1.20
2018-11-23T04:44:05.506Z,1.30
2018-11-23T04:46:31.484Z,1.30
2018-11-23T04:48:57.469Z,1.40
2018-11-23T04:51:23.448Z,1.40
2018-11-23T04:53:49.417Z,1.40
2018-11-23T04:56:15.526Z,1.50
2018-11-23T04:58:41.539Z,1.50
2018-11-23T05:01:07.532Z,1.40
2018-11-23T05:03:33.528Z,1.40
2018-11-23T05:05:59.528Z,1.50
2018-11-23T05:08:26.289Z,1.40
2018-11-23T05:10:52.288Z,1.40
2018-11-23T05:13:18.336Z,1.30
2018-11-23T05:15:44.328Z,1.30
2018-11-23T05:18:10.299Z,1.20
2018-11-23T05:20:36.274Z,1.20
2018-11-23T05:23:02.212Z,1.20
2018-11-23T05:25:28.263Z,1.00
2018-11-23T05:27:54.212Z,1.00
2018-11-23T05:30:20.204Z,0.80
2018-11-23T05:32:46.202Z,0.70
2018-11-23T05:35:12.161Z,0.70
2018-11-23T05:37:38.108Z,0.70
2018-11-23T05:40:04.066Z,0.50
2018-11-23T05:42:30.026Z,0.40
2018-11-23T05:44:55.999Z,0.30
2018-11-23T05:47:23.068Z,0.30
2018-11-23T05:49:49.076Z,0.40
2018-11-23T05:52:15.034Z,0.30
2018-11-23T05:54:41.005Z,0.60
2018-11-23T05:57:08.696Z,0.80
2018-11-23T05:59:33.704Z,0.80
2018-11-23T06:02:00.224Z,0.90
2018-11-23T06:04:26.191Z,0.90
2018-11-23T06:06:52.214Z,0.90
2018-11-23T06:09:18.192Z,0.90
2018-11-23T06:11:48.612Z,1.10
2018-11-23T06:14:14.588Z,1.10
2018-11-23T06:16:40.569Z,1.10
2018-11-23T06:19:06.604Z,1.00
2018-11-23T06:21:42.569Z,0.90
2018-11-23T06:24:08.537Z,0.90
2018-11-23T06:26:35.225Z,0.80
2018-11-23T06:29:01.222Z,0.80
2018-11-23T06:31:27.194Z,0.80
2018-11-23T06:33:53.175Z,0.90
2018-11-23T06:36:19.186Z,1.00
2018-11-23T06:38:45.173Z,1.00
2018-11-23T06:41:11.902Z,0.80
2018-11-23T06:43:37.916Z,0.80
2018-11-23T06:46:03.884Z,0.90
2018-11-23T06:48:29.852Z,0.90
2018-11-23T06:50:55.853Z,0.80
2018-11-23T06:53:21.852Z,0.80
2018-11-23T06:55:47.849Z,0.90
2018-11-23T06:58:13.871Z,0.80
2018-11-23T07:00:39.859Z,0.80
2018-11-23T07:03:05.808Z,0.70
2018-11-23T07:05:32.506Z,0.90
2018-11-23T07:07:58.499Z,0.90
2018-11-23T07:10:24.495Z,1.00
2018-11-23T07:12:51.233Z,1.20
2018-11-23T07:15:17.977Z,1.30
2018-11-23T07:17:44.694Z,1.50
2018-11-23T07:20:10.673Z,1.50
2018-11-23T07:22:36.623Z,1.70
2018-11-23T07:25:02.590Z,1.80
2018-11-23T07:27:28.567Z,1.90
2018-11-23T07:29:54.508Z,1.90
2018-11-23T07:32:21.206Z,2.10
2018-11-23T07:34:47.169Z,2.00
2018-11-23T07:37:13.142Z,2.10
2018-11-23T07:39:51.640Z,2.00
2018-11-23T07:42:17.591Z,2.10
2018-11-23T07:44:43.552Z,2.00
2018-11-23T07:47:10.252Z,2.50
2018-11-23T07:49:36.225Z,2.50
2018-11-23T07:52:02.927Z,3.10
2018-11-23T07:54:28.884Z,3.10
2018-11-23T07:56:55.625Z,3.80
2018-11-23T07:59:21.644Z,3.80
2018-11-23T08:01:47.640Z,4.30
2018-11-23T08:04:13.624Z,4.80
2018-11-23T08:06:39.592Z,4.50
2018-11-23T08:09:05.548Z,4.80
2018-11-23T08:11:31.485Z,5.20
2018-11-23T08:13:57.512Z,5.80
2018-11-23T08:16:23.496Z,6.30
2018-11-23T08:18:49.451Z,6.30
2018-11-23T08:21:15.421Z,6.50
2018-11-23T08:23:42.138Z,6.20
2018-11-23T08:26:08.089Z,6.20
2018-11-23T08:28:34.077Z,5.70
2018-11-23T08:31:00.037Z,5.40
2018-11-23T08:33:25.974Z,5.60
2018-11-23T08:35:51.976Z,6.10
2018-11-23T08:38:17.946Z,5.70
2018-11-23T08:40:43.932Z,6.00
2018-11-23T08:43:09.894Z,5.80
2018-11-23T08:45:35.880Z,6.20
2018-11-23T08:48:01.871Z,6.30
2018-11-23T08:50:27.844Z,6.20
2018-11-23T08:52:53.849Z,5.20
2018-11-23T08:55:19.832Z,5.00
2018-11-23T08:57:45.780Z,5.30
2018-11-23T09:00:11.785Z,4.50
2018-11-23T09:02:37.768Z,4.90
2018-11-23T09:05:03.752Z,4.60
2018-11-23T09:07:29.705Z,3.50
2018-11-23T09:09:55.668Z,3.70
2018-11-23T09:12:21.651Z,4.10
2018-11-23T09:14:47.668Z,4.10
2018-11-23T09:17:13.648Z,4.10
2018-11-23T09:19:39.694Z,3.80
2018-11-23T09:22:05.695Z,3.60
2018-11-23T09:24:32.428Z,4.00
2018-11-23T09:26:58.423Z,3.90
2018-11-23T09:29:24.425Z,3.90
2018-11-23T09:31:50.400Z,3.70
2018-11-23T09:34:17.120Z,4.10
2018-11-23T09:36:43.116Z,4.10
2018-11-23T09:39:09.109Z,4.10
2018-11-23T09:41:35.101Z,3.80
2018-11-23T09:44:01.338Z,4.40
2018-11-23T09:46:27.344Z,3.90
2018-11-23T09:48:53.319Z,4.90
2018-11-23T09:51:19.306Z,4.60
2018-11-23T09:53:45.268Z,4.80
2018-11-23T09:56:11.259Z,4.80
2018-11-23T09:58:43.375Z,4.70
2018-11-23T10:01:03.371Z,4.90
2018-11-23T10:03:29.340Z,4.60
2018-11-23T10:05:55.356Z,4.70
2018-11-23T10:08:21.333Z,4.60
2018-11-23T10:10:47.317Z,5.20
2018-11-23T10:13:13.287Z,5.10
2018-11-23T10:15:40.019Z,4.60
2018-11-23T10:18:05.996Z,4.60
2018-11-23T10:20:32.708Z,4.90
2018-11-23T10:22:58.701Z,4.90
2018-11-23T10:25:24.695Z,4.50
2018-11-23T10:27:50.669Z,4.80
2018-11-23T10:30:16.645Z,5.00
2018-11-23T10:32:42.642Z,4.70
2018-11-23T10:35:08.617Z,4.60
2018-11-23T10:37:35.336Z,4.90
2018-11-23T10:40:01.345Z,4.90
2018-11-23T10:42:27.318Z,5.30
2018-11-23T10:44:54.041Z,5.20
2018-11-23T10:47:20.041Z,5.20
2018-11-23T10:49:46.041Z,5.10
2018-11-23T10:52:12.031Z,5.10
2018-11-23T10:54:38.000Z,5.00
2018-11-23T10:57:03.987Z,4.80
2018-11-23T10:59:29.971Z,4.90
2018-11-23T11:02:06.655Z,5.50
2018-11-23T11:04:32.653Z,5.50
2018-11-23T11:06:59.373Z,5.20
2018-11-23T11:09:25.417Z,5.20
2018-11-23T11:11:52.164Z,4.80
2018-11-23T11:14:18.143Z,4.90
2018-11-23T11:16:44.093Z,5.10
2018-11-23T11:19:10.078Z,5.30
2018-11-23T11:21:36.057Z,5.80
2018-11-23T11:24:02.760Z,5.60
2018-11-23T11:26:28.752Z,5.60
2018-11-23T11:28:54.755Z,6.00
2018-11-23T11:31:20.728Z,6.20
2018-11-23T11:33:46.706Z,6.10
2018-11-23T11:36:12.676Z,5.30
2018-11-23T11:38:38.643Z,5.20
2018-11-23T11:41:04.652Z,5.30
2018-11-23T11:43:30.644Z,5.20
2018-11-23T11:45:56.644Z,5.90
2018-11-23T11:48:22.609Z,5.80
2018-11-23T11:50:48.568Z,5.80
2018-11-23T11:53:14.549Z,5.80
2018-11-23T11:55:41.248Z,6.40
2018-11-23T11:58:07.256Z,6.40
2018-11-23T12:00:33.307Z,6.50
2018-11-23T12:02:59.276Z,6.70
2018-11-23T12:05:25.279Z,6.90
2018-11-23T12:07:51.249Z,5.50
2018-11-23T12:10:17.240Z,5.90
2018-11-23T12:12:43.240Z,5.70
2018-11-23T12:15:09.226Z,6.20
2018-11-23T12:17:35.191Z,5.90
2018-11-23T12:20:01.157Z,5.50
2018-11-23T12:22:27.135Z,5.80
2018-11-23T12:24:53.120Z,6.00
2018-11-23T12:27:19.082Z,5.90
2018-11-23T12:29:45.103Z,5.80
2018-11-23T12:32:11.105Z,5.30
2018-11-23T12:34:37.888Z,5.20
2018-11-23T12:37:03.920Z,5.20
2018-11-23T12:39:29.924Z,5.60
2018-11-23T12:41:55.967Z,5.80
2018-11-23T12:44:21.976Z,5.80
2018-11-23T12:46:47.993Z,5.90
2018-11-23T12:49:13.994Z,5.90
2018-11-23T12:51:40.009Z,5.40
2018-11-23T12:54:06.015Z,5.40
2018-11-23T12:56:32.022Z,5.30
2018-11-23T12:58:58.025Z,4.90
2018-11-23T13:01:24.073Z,4.80
2018-11-23T13:03:50.097Z,4.30
2018-11-23T13:06:16.100Z,4.70
2018-11-23T13:08:42.078Z,4.60
2018-11-23T13:11:08.827Z,4.40
2018-11-23T13:13:34.847Z,4.40
2018-11-23T13:16:00.829Z,4.50
2018-11-23T13:18:26.796Z,4.60
2018-11-23T13:20:52.777Z,4.60
2018-11-23T13:23:18.769Z,4.70
2018-11-23T13:25:44.755Z,4.50
2018-11-23T13:28:10.738Z,4.20
2018-11-23T13:30:36.708Z,4.20
2018-11-23T13:33:02.700Z,4.30
2018-11-23T13:35:28.693Z,5.20
2018-11-23T13:37:54.685Z,5.40
2018-11-23T13:40:20.661Z,5.00
2018-11-23T13:42:46.627Z,4.70
2018-11-23T13:45:12.658Z,5.10
2018-11-23T13:47:38.672Z,4.50
2018-11-23T13:50:04.705Z,4.30
2018-11-23T13:52:30.669Z,4.30
2018-11-23T13:54:56.651Z,4.00
2018-11-23T13:57:22.624Z,4.40
2018-11-23T13:59:49.352Z,4.10
2018-11-23T14:02:15.324Z,4.10
2018-11-23T14:04:41.294Z,3.80
2018-11-23T14:07:07.262Z,4.10
2018-11-23T14:09:33.278Z,3.80
2018-11-23T14:11:59.270Z,3.70
2018-11-23T14:14:26.006Z,3.80
2018-11-23T14:16:51.967Z,3.80
2018-11-23T14:19:17.951Z,3.90
2018-11-23T14:21:44.672Z,4.10
2018-11-23T14:24:10.668Z,4.10
2018-11-23T14:26:36.628Z,4.30
2018-11-23T14:29:02.662Z,4.40
2018-11-23T14:31:29.201Z,4.70
2018-11-23T14:33:55.190Z,4.50
2018-11-23T14:36:21.161Z,4.00
2018-11-23T14:38:47.131Z,4.00
2018-11-23T14:41:13.100Z,3.40
2018-11-23T14:43:39.105Z,3.70
2018-11-23T14:46:05.109Z,3.70
2018-11-23T14:48:31.825Z,3.70
2018-11-23T14:50:57.820Z,3.60
2018-11-23T14:53:23.776Z,3.40
2018-11-23T14:55:49.810Z,3.70
2018-11-23T14:58:15.795Z,3.60
2018-11-23T15:00:41.922Z,3.80
2018-11-23T15:03:08.021Z,3.40
2018-11-23T15:05:34.016Z,3.70
2018-11-23T15:08:00.098Z,3.70
2018-11-23T15:10:26.075Z,3.30
2018-11-23T15:12:52.037Z,3.30
2018-11-23T15:15:18.725Z,3.40
2018-11-23T15:17:45.453Z,3.20
2018-11-23T15:20:11.461Z,3.20
2018-11-23T15:22:37.430Z,2.90
2018-11-23T15:25:03.394Z,3.00
2018-11-23T15:27:29.358Z,3.00
2018-11-23T15:29:56.146Z,3.30
2018-11-23T15:32:22.119Z,3.30
2018-11-23T15:34:48.130Z,3.10
2018-11-23T15:37:14.845Z,3.00
2018-11-23T15:39:40.838Z,3.00
2018-11-23T15:42:06.826Z,2.90
2018-11-23T15:44:32.825Z,3.00
2018-11-23T15:46:59.567Z,3.00
2018-11-23T15:49:26.284Z,2.80
2018-11-23T15:51:53.034Z,3.20
2018-11-23T15:54:19.053Z,3.20
2018-11-23T15:56:45.046Z,2.90
2018-11-23T15:59:11.118Z,3.00
2018-11-23T16:01:37.225Z,2.80
2018-11-23T16:04:03.166Z,3.00
2018-11-23T16:06:29.896Z,2.80
2018-11-23T16:08:55.892Z,2.80
2018-11-23T16:11:21.955Z,3.00
2018-11-23T16:13:48.012Z,3.10
2018-11-23T16:16:14.000Z,3.00
2018-11-23T16:18:39.977Z,3.00
2018-11-23T16:21:05.976Z,3.00
2018-11-23T16:23:31.953Z,2.60
2018-11-23T16:25:57.929Z,2.80
2018-11-23T16:28:23.986Z,2.60
2018-11-23T16:30:49.937Z,2.70
2018-11-23T16:33:15.915Z,2.90
2018-11-23T16:35:41.916Z,2.90
2018-11-23T16:38:07.895Z,3.00
2018-11-23T16:40:33.889Z,2.70
2018-11-23T16:42:59.883Z,2.70
2018-11-23T16:45:25.894Z,2.80
2018-11-23T16:47:51.871Z,2.90
2018-11-23T16:50:18.596Z,2.70
2018-11-23T16:52:44.622Z,2.70
2018-11-23T16:55:10.636Z,2.60
2018-11-23T16:57:36.719Z,2.80
2018-11-23T17:00:02.667Z,2.80
2018-11-23T17:02:28.805Z,2.90
2018-11-23T17:04:54.828Z,3.00
2018-11-23T17:07:20.824Z,2.90
2018-11-23T17:09:46.843Z,3.00
2018-11-23T17:12:12.848Z,2.70
2018-11-23T17:14:38.839Z,3.00
2018-11-23T17:17:04.834Z,2.90
2018-11-23T17:19:30.800Z,3.10
2018-11-23T17:21:57.486Z,3.10
2018-11-23T17:24:23.487Z,3.10
2018-11-23T17:26:49.516Z,2.90
2018-11-23T17:29:15.854Z,3.10
2018-11-23T17:31:41.400Z,2.90
2018-11-23T17:34:07.364Z,3.00
2018-11-23T17:36:33.379Z,2.90
2018-11-23T17:38:59.364Z,3.10
2018-11-23T17:41:25.708Z,3.00
2018-11-23T17:43:51.926Z,3.10
2018-11-23T17:46:18.695Z,2.90
2018-11-23T17:48:44.770Z,2.90
2018-11-23T17:51:10.779Z,3.20
2018-11-23T17:53:36.794Z,3.20
2018-11-23T17:56:02.844Z,3.30
2018-11-23T17:58:28.843Z,3.20
2018-11-23T18:00:54.924Z,3.30
2018-11-23T18:03:20.989Z,3.20
2018-11-23T18:05:47.112Z,3.40
2018-11-23T18:08:13.120Z,3.00
2018-11-23T18:10:39.111Z,3.00
2018-11-23T18:13:05.109Z,3.10
2018-11-23T18:15:31.118Z,3.10
2018-11-23T18:17:57.092Z,3.20
2018-11-23T18:20:23.088Z,2.90
2018-11-23T18:22:49.953Z,3.00
2018-11-23T18:25:15.936Z,3.00
2018-11-23T18:27:41.896Z,2.90
2018-11-23T18:30:07.893Z,3.00
2018-11-23T18:32:34.652Z,2.80
2018-11-23T18:35:00.684Z,2.80
2018-11-23T18:37:26.698Z,2.90
2018-11-23T18:39:52.754Z,3.00
2018-11-23T18:42:18.725Z,3.10
2018-11-23T18:44:44.707Z,3.20
2018-11-23T18:47:10.749Z,3.10
2018-11-23T18:49:37.865Z,3.10
2018-11-23T18:52:04.271Z,3.20
2018-11-23T18:54:31.736Z,3.20
2018-11-23T18:56:58.522Z,3.20
2018-11-23T18:59:25.861Z,3.20
2018-11-23T19:01:51.911Z,3.10
2018-11-23T19:04:19.939Z,3.40
2018-11-23T19:06:48.327Z,3.40
2018-11-23T19:09:15.385Z,3.30
2018-11-23T19:11:42.697Z,3.30
2018-11-23T19:14:09.727Z,3.30
2018-11-23T19:16:35.931Z,3.20
2018-11-23T19:19:02.882Z,3.20
2018-11-23T19:21:29.999Z,3.30
2018-11-23T19:23:56.911Z,3.40
2018-11-23T19:26:23.799Z,3.70
2018-11-23T19:28:50.702Z,3.70
2018-11-23T19:31:17.645Z,3.80
2018-11-23T19:33:44.769Z,3.60
2018-11-23T19:36:13.773Z,3.70
2018-11-23T19:38:40.038Z,3.90
2018-11-23T19:41:06.889Z,4.00
2018-11-23T19:43:32.888Z,4.00
2018-11-23T19:45:59.106Z,4.10
2018-11-23T19:48:25.283Z,4.30
2018-11-23T19:50:52.121Z,3.90
2018-11-23T19:53:18.879Z,4.00
2018-11-23T19:55:45.628Z,3.90
2018-11-23T19:58:11.655Z,3.90
2018-11-23T20:00:37.624Z,4.00
2018-11-23T20:03:03.621Z,4.00
2018-11-23T20:05:29.914Z,3.80
2018-11-23T20:07:55.991Z,3.90
2018-11-23T20:10:22.021Z,3.80
2018-11-23T20:12:48.233Z,3.70
2018-11-23T20:15:14.259Z,3.60
2018-11-23T20:17:41.467Z,3.60
2018-11-23T20:20:06.181Z,3.50
2018-11-23T20:22:32.152Z,3.70
2018-11-23T20:24:58.164Z,3.90
2018-11-23T20:27:24.117Z,3.80
2018-11-23T20:29:50.112Z,3.90
2018-11-23T20:32:16.086Z,4.00
2018-11-23T20:34:42.092Z,3.90
2018-11-23T20:37:08.062Z,3.80
2018-11-23T20:39:34.116Z,3.60
2018-11-23T20:42:00.196Z,3.70
2018-11-23T20:44:26.189Z,3.70
2018-11-23T20:46:52.245Z,3.70
2018-11-23T20:49:18.231Z,3.90
2018-11-23T20:51:44.227Z,3.70
2018-11-23T20:54:10.259Z,3.90
2018-11-23T20:56:36.277Z,3.70
2018-11-23T20:59:02.282Z,3.60
2018-11-23T21:01:28.277Z,3.60
2018-11-23T21:03:54.244Z,3.90
2018-11-23T21:06:20.243Z,3.90
2018-11-23T21:08:46.276Z,4.10
2018-11-23T21:11:13.016Z,4.40
2018-11-23T21:13:39.033Z,4.40
2018-11-23T21:16:05.009Z,4.20
2018-11-23T21:18:31.105Z,4.00
2018-11-23T21:20:57.321Z,4.00
2018-11-23T21:23:23.356Z,3.80
2018-11-23T21:25:50.061Z,4.10
2018-11-23T21:28:16.109Z,4.00
2018-11-23T21:30:42.832Z,4.00
2018-11-23T21:33:09.581Z,3.80
2018-11-23T21:35:35.629Z,3.80
2018-11-23T21:38:01.664Z,3.90
2018-11-23T21:40:27.668Z,3.70
2018-11-23T21:42:53.748Z,3.90
2018-11-23T21:45:19.754Z,3.60
2018-11-23T21:47:45.754Z,3.70
2018-11-23T21:50:11.764Z,3.60
2018-11-23T21:52:37.804Z,3.70
2018-11-23T21:55:03.798Z,3.40
2018-11-23T21:57:29.793Z,3.30
2018-11-23T21:59:55.821Z,3.70
2018-11-23T22:02:21.787Z,3.60
2018-11-23T22:04:47.802Z,3.60
2018-11-23T22:07:13.851Z,3.90
2018-11-23T22:09:39.927Z,3.90
2018-11-23T22:12:06.699Z,3.90
2018-11-23T22:14:32.789Z,3.90
2018-11-23T22:16:58.907Z,4.10
2018-11-23T22:19:25.116Z,4.20
2018-11-23T22:21:51.218Z,4.00
2018-11-23T22:24:17.336Z,4.10
2018-11-23T22:26:43.450Z,4.10
2018-11-23T22:29:09.481Z,4.40
2018-11-23T22:31:35.506Z,4.50
2018-11-23T22:34:01.502Z,4.10
2018-11-23T22:36:27.492Z,4.40
2018-11-23T22:38:53.471Z,4.30
2018-11-23T22:41:19.523Z,4.40
2018-11-23T22:43:46.291Z,4.50
2018-11-23T22:46:13.036Z,4.60
2018-11-23T22:48:39.083Z,4.60
2018-11-23T22:51:05.089Z,4.50
2018-11-23T22:53:31.060Z,4.50
2018-11-23T22:55:57.029Z,4.50
2018-11-23T22:58:22.964Z,4.60
2018-11-23T23:00:48.971Z,4.60
2018-11-23T23:03:14.929Z,4.50
2018-11-23T23:05:42.678Z,4.30
2018-11-23T23:08:06.877Z,4.30
2018-11-23T23:10:32.833Z,4.40
2018-11-23T23:12:58.803Z,4.30
2018-11-23T23:15:24.788Z,4.20
2018-11-23T23:17:51.025Z,4.40
2018-11-23T23:20:16.993Z,4.20
2018-11-23T23:22:42.929Z,4.30
2018-11-23T23:25:08.892Z,4.30
2018-11-23T23:27:34.863Z,4.00
2018-11-23T23:30:00.836Z,4.30
2018-11-23T23:32:26.818Z,4.30
2018-11-23T23:34:52.820Z,4.30
2018-11-23T23:37:18.794Z,4.10
2018-11-23T23:39:44.770Z,4.30
2018-11-23T23:42:10.756Z,4.20
2018-11-23T23:44:36.764Z,4.20
2018-11-23T23:47:02.744Z,4.10
2018-11-23T23:49:28.739Z,3.80
2018-11-23T23:51:54.712Z,4.00
2018-11-23T23:54:20.715Z,4.00
2018-11-23T23:56:46.707Z,4.00
2018-11-23T23:59:12.678Z,3.90
